sensor_id;sensor_type;location;lat;lon;timestamp;P1;durP1;ratioP1;P2;durP2;ratioP2
9294;SDS011;4686;44.496;11.324;2022-11-14T00:02:18;34.90;;;26.27;;
9294;SDS011;4686;44.496;11.324;2022-11-14T00:04:45;33.03;;;27.50;;
9294;SDS011;4686;44.496;11.324;2022-11-14T00:07:13;35.23;;;27.50;;
9294;SDS011;4686;44.496;11.324;2022-11-14T00:09:40;38.53;;;28.27;;
9294;SDS011;4686;44.496;11.324;2022-11-14T00:12:09;35.53;;;28.03;;
9294;SDS011;4686;44.496;11.324;2022-11-14T00:14:36;31.73;;;25.60;;
9294;SDS011;4686;44.496;11.324;2022-11-14T00:17:04;32.17;;;26.40;;
9294;SDS011;4686;44.496;11.324;2022-11-14T00:19:31;32.70;;;26.80;;
9294;SDS011;4686;44.496;11.324;2022-11-14T00:21:59;29.60;;;25.67;;
9294;SDS011;4686;44.496;11.324;2022-11-14T00:24:26;31.53;;;24.97;;
9294;SDS011;4686;44.496;11.324;2022-11-14T00:26:53;29.43;;;24.40;;
9294;SDS011;4686;44.496;11.324;2022-11-14T00:29:22;31.30;;;25.73;;
9294;SDS011;4686;44.496;11.324;2022-11-14T00:31:49;33.27;;;26.30;;
9294;SDS011;4686;44.496;11.324;2022-11-14T00:34:16;29.43;;;25.47;;
9294;SDS011;4686;44.496;11.324;2022-11-14T00:36:44;30.23;;;24.40;;
9294;SDS011;4686;44.496;11.324;2022-11-14T00:39:12;32.87;;;26.80;;
9294;SDS011;4686;44.496;11.324;2022-11-14T00:41:39;31.90;;;26.47;;
9294;SDS011;4686;44.496;11.324;2022-11-14T00:44:07;29.27;;;25.77;;
9294;SDS011;4686;44.496;11.324;2022-11-14T00:46:36;29.83;;;25.07;;
9294;SDS011;4686;44.496;11.324;2022-11-14T00:49:04;42.07;;;27.47;;
9294;SDS011;4686;44.496;11.324;2022-11-14T00:51:31;37.83;;;26.60;;
9294;SDS011;4686;44.496;11.324;2022-11-14T00:53:59;30.80;;;25.90;;
9294;SDS011;4686;44.496;11.324;2022-11-14T00:56:26;34.00;;;26.67;;
9294;SDS011;4686;44.496;11.324;2022-11-14T00:58:54;32.50;;;26.70;;
9294;SDS011;4686;44.496;11.324;2022-11-14T01:01:21;34.30;;;27.70;;
9294;SDS011;4686;44.496;11.324;2022-11-14T01:03:50;32.80;;;26.73;;
9294;SDS011;4686;44.496;11.324;2022-11-14T01:06:18;39.47;;;27.33;;
9294;SDS011;4686;44.496;11.324;2022-11-14T01:08:45;31.87;;;25.97;;
9294;SDS011;4686;44.496;11.324;2022-11-14T01:11:14;31.40;;;26.03;;
9294;SDS011;4686;44.496;11.324;2022-11-14T01:13:42;34.13;;;27.50;;
9294;SDS011;4686;44.496;11.324;2022-11-14T01:16:09;33.10;;;27.60;;
9294;SDS011;4686;44.496;11.324;2022-11-14T01:18:36;34.57;;;27.30;;
9294;SDS011;4686;44.496;11.324;2022-11-14T01:21:06;33.33;;;26.33;;
9294;SDS011;4686;44.496;11.324;2022-11-14T01:23:34;33.50;;;26.67;;
9294;SDS011;4686;44.496;11.324;2022-11-14T01:26:02;38.00;;;29.20;;
9294;SDS011;4686;44.496;11.324;2022-11-14T01:28:29;35.10;;;28.00;;
9294;SDS011;4686;44.496;11.324;2022-11-14T01:31:05;33.73;;;29.17;;
9294;SDS011;4686;44.496;11.324;2022-11-14T01:33:33;37.70;;;29.43;;
9294;SDS011;4686;44.496;11.324;2022-11-14T01:36:00;36.77;;;30.30;;
9294;SDS011;4686;44.496;11.324;2022-11-14T01:38:29;39.57;;;29.57;;
9294;SDS011;4686;44.496;11.324;2022-11-14T01:40:56;35.10;;;28.43;;
9294;SDS011;4686;44.496;11.324;2022-11-14T01:43:25;35.87;;;29.70;;
9294;SDS011;4686;44.496;11.324;2022-11-14T01:45:53;40.67;;;30.93;;
9294;SDS011;4686;44.496;11.324;2022-11-14T01:48:22;36.10;;;29.63;;
9294;SDS011;4686;44.496;11.324;2022-11-14T01:50:52;39.10;;;29.20;;
9294;SDS011;4686;44.496;11.324;2022-11-14T01:53:20;36.27;;;29.40;;
9294;SDS011;4686;44.496;11.324;2022-11-14T01:55:49;34.90;;;28.63;;
9294;SDS011;4686;44.496;11.324;2022-11-14T01:58:16;35.37;;;28.93;;
9294;SDS011;4686;44.496;11.324;2022-11-14T02:00:44;33.83;;;28.17;;
9294;SDS011;4686;44.496;11.324;2022-11-14T02:03:11;38.77;;;30.90;;
9294;SDS011;4686;44.496;11.324;2022-11-14T02:05:39;36.33;;;29.83;;
9294;SDS011;4686;44.496;11.324;2022-11-14T02:08:06;35.90;;;29.70;;
9294;SDS011;4686;44.496;11.324;2022-11-14T02:10:36;35.37;;;27.67;;
9294;SDS011;4686;44.496;11.324;2022-11-14T02:13:04;35.33;;;28.93;;
9294;SDS011;4686;44.496;11.324;2022-11-14T02:15:32;38.63;;;30.03;;
9294;SDS011;4686;44.496;11.324;2022-11-14T02:18:00;36.70;;;27.83;;
9294;SDS011;4686;44.496;11.324;2022-11-14T02:20:32;33.97;;;28.80;;
9294;SDS011;4686;44.496;11.324;2022-11-14T02:23:00;36.40;;;29.97;;
9294;SDS011;4686;44.496;11.324;2022-11-14T02:25:27;34.10;;;28.90;;
9294;SDS011;4686;44.496;11.324;2022-11-14T02:27:54;34.33;;;28.10;;
9294;SDS011;4686;44.496;11.324;2022-11-14T02:30:24;36.33;;;29.60;;
9294;SDS011;4686;44.496;11.324;2022-11-14T02:32:51;38.90;;;29.83;;
9294;SDS011;4686;44.496;11.324;2022-11-14T02:35:19;35.30;;;29.30;;
9294;SDS011;4686;44.496;11.324;2022-11-14T02:37:47;36.23;;;31.30;;
9294;SDS011;4686;44.496;11.324;2022-11-14T02:40:15;42.77;;;33.47;;
9294;SDS011;4686;44.496;11.324;2022-11-14T02:42:42;41.83;;;31.33;;
9294;SDS011;4686;44.496;11.324;2022-11-14T02:45:10;42.30;;;31.53;;
9294;SDS011;4686;44.496;11.324;2022-11-14T02:47:38;35.83;;;31.50;;
9294;SDS011;4686;44.496;11.324;2022-11-14T02:50:05;35.30;;;28.20;;
9294;SDS011;4686;44.496;11.324;2022-11-14T02:52:32;39.13;;;30.27;;
9294;SDS011;4686;44.496;11.324;2022-11-14T02:55:01;34.40;;;27.53;;
9294;SDS011;4686;44.496;11.324;2022-11-14T02:57:28;33.00;;;28.07;;
9294;SDS011;4686;44.496;11.324;2022-11-14T02:59:56;33.40;;;27.50;;
9294;SDS011;4686;44.496;11.324;2022-11-14T03:02:23;30.23;;;25.80;;
9294;SDS011;4686;44.496;11.324;2022-11-14T03:04:50;28.67;;;25.57;;
9294;SDS011;4686;44.496;11.324;2022-11-14T03:07:18;30.13;;;26.60;;
9294;SDS011;4686;44.496;11.324;2022-11-14T03:09:45;32.40;;;25.87;;
9294;SDS011;4686;44.496;11.324;2022-11-14T03:12:15;32.30;;;24.30;;
9294;SDS011;4686;44.496;11.324;2022-11-14T03:14:43;28.47;;;23.93;;
9294;SDS011;4686;44.496;11.324;2022-11-14T03:17:10;31.00;;;25.37;;
9294;SDS011;4686;44.496;11.324;2022-11-14T03:19:38;35.73;;;26.03;;
9294;SDS011;4686;44.496;11.324;2022-11-14T03:22:05;30.67;;;25.23;;
9294;SDS011;4686;44.496;11.324;2022-11-14T03:24:33;29.80;;;26.00;;
9294;SDS011;4686;44.496;11.324;2022-11-14T03:27:00;30.10;;;24.40;;
9294;SDS011;4686;44.496;11.324;2022-11-14T03:29:29;29.70;;;24.80;;
9294;SDS011;4686;44.496;11.324;2022-11-14T03:31:56;26.07;;;22.30;;
9294;SDS011;4686;44.496;11.324;2022-11-14T03:34:23;29.10;;;23.60;;
9294;SDS011;4686;44.496;11.324;2022-11-14T03:36:51;28.40;;;23.53;;
9294;SDS011;4686;44.496;11.324;2022-11-14T03:39:18;32.30;;;23.67;;
9294;SDS011;4686;44.496;11.324;2022-11-14T03:41:45;27.83;;;23.50;;
9294;SDS011;4686;44.496;11.324;2022-11-14T03:44:13;31.40;;;24.43;;
9294;SDS011;4686;44.496;11.324;2022-11-14T03:46:42;27.13;;;22.23;;
9294;SDS011;4686;44.496;11.324;2022-11-14T03:49:09;29.83;;;24.73;;
9294;SDS011;4686;44.496;11.324;2022-11-14T03:51:36;28.30;;;24.33;;
9294;SDS011;4686;44.496;11.324;2022-11-14T03:54:03;30.53;;;24.93;;
9294;SDS011;4686;44.496;11.324;2022-11-14T03:56:31;31.63;;;24.97;;
9294;SDS011;4686;44.496;11.324;2022-11-14T03:58:58;31.10;;;25.27;;
9294;SDS011;4686;44.496;11.324;2022-11-14T04:01:25;31.30;;;25.50;;
9294;SDS011;4686;44.496;11.324;2022-11-14T04:03:54;31.13;;;24.90;;
9294;SDS011;4686;44.496;11.324;2022-11-14T04:06:22;30.13;;;25.30;;
9294;SDS011;4686;44.496;11.324;2022-11-14T04:08:49;30.73;;;25.60;;
9294;SDS011;4686;44.496;11.324;2022-11-14T04:11:21;31.83;;;25.93;;
9294;SDS011;4686;44.496;11.324;2022-11-14T04:13:51;33.80;;;25.37;;
9294;SDS011;4686;44.496;11.324;2022-11-14T04:16:18;34.17;;;26.83;;
9294;SDS011;4686;44.496;11.324;2022-11-14T04:18:46;33.37;;;28.47;;
9294;SDS011;4686;44.496;11.324;2022-11-14T04:21:14;31.00;;;26.67;;
9294;SDS011;4686;44.496;11.324;2022-11-14T04:23:44;34.70;;;26.63;;
9294;SDS011;4686;44.496;11.324;2022-11-14T04:26:12;31.53;;;25.20;;
9294;SDS011;4686;44.496;11.324;2022-11-14T04:28:39;32.93;;;26.40;;
9294;SDS011;4686;44.496;11.324;2022-11-14T04:31:06;35.23;;;28.10;;
9294;SDS011;4686;44.496;11.324;2022-11-14T04:33:34;37.20;;;27.47;;
9294;SDS011;4686;44.496;11.324;2022-11-14T04:36:01;37.17;;;28.10;;
9294;SDS011;4686;44.496;11.324;2022-11-14T04:38:30;30.40;;;26.87;;
9294;SDS011;4686;44.496;11.324;2022-11-14T04:40:57;35.33;;;29.13;;
9294;SDS011;4686;44.496;11.324;2022-11-14T04:43:24;34.60;;;28.10;;
9294;SDS011;4686;44.496;11.324;2022-11-14T04:45:52;30.90;;;26.47;;
9294;SDS011;4686;44.496;11.324;2022-11-14T04:48:19;34.77;;;26.40;;
9294;SDS011;4686;44.496;11.324;2022-11-14T04:50:47;31.83;;;27.70;;
9294;SDS011;4686;44.496;11.324;2022-11-14T04:53:14;34.93;;;26.67;;
9294;SDS011;4686;44.496;11.324;2022-11-14T04:55:44;35.57;;;28.77;;
9294;SDS011;4686;44.496;11.324;2022-11-14T04:58:11;33.77;;;28.40;;
9294;SDS011;4686;44.496;11.324;2022-11-14T05:00:38;34.50;;;26.60;;
9294;SDS011;4686;44.496;11.324;2022-11-14T05:03:05;36.97;;;29.50;;
9294;SDS011;4686;44.496;11.324;2022-11-14T05:05:33;32.53;;;27.37;;
9294;SDS011;4686;44.496;11.324;2022-11-14T05:08:00;34.47;;;28.13;;
9294;SDS011;4686;44.496;11.324;2022-11-14T05:10:28;34.40;;;28.60;;
9294;SDS011;4686;44.496;11.324;2022-11-14T05:12:56;35.83;;;27.93;;
9294;SDS011;4686;44.496;11.324;2022-11-14T05:15:24;36.17;;;28.00;;
9294;SDS011;4686;44.496;11.324;2022-11-14T05:17:51;31.63;;;27.10;;
9294;SDS011;4686;44.496;11.324;2022-11-14T05:20:19;35.60;;;28.87;;
9294;SDS011;4686;44.496;11.324;2022-11-14T05:22:46;36.60;;;29.90;;
9294;SDS011;4686;44.496;11.324;2022-11-14T05:25:13;35.83;;;30.20;;
9294;SDS011;4686;44.496;11.324;2022-11-14T05:27:41;38.50;;;29.43;;
9294;SDS011;4686;44.496;11.324;2022-11-14T05:30:10;36.70;;;29.20;;
9294;SDS011;4686;44.496;11.324;2022-11-14T05:32:38;34.10;;;29.60;;
9294;SDS011;4686;44.496;11.324;2022-11-14T05:35:08;36.20;;;29.87;;
9294;SDS011;4686;44.496;11.324;2022-11-14T05:37:36;34.60;;;29.53;;
9294;SDS011;4686;44.496;11.324;2022-11-14T05:40:04;34.80;;;28.33;;
9294;SDS011;4686;44.496;11.324;2022-11-14T05:42:31;37.27;;;29.17;;
9294;SDS011;4686;44.496;11.324;2022-11-14T05:44:59;38.00;;;30.13;;
9294;SDS011;4686;44.496;11.324;2022-11-14T05:47:28;35.90;;;28.53;;
9294;SDS011;4686;44.496;11.324;2022-11-14T05:49:55;33.80;;;28.40;;
9294;SDS011;4686;44.496;11.324;2022-11-14T05:52:22;35.70;;;28.70;;
9294;SDS011;4686;44.496;11.324;2022-11-14T05:54:49;35.93;;;28.57;;
9294;SDS011;4686;44.496;11.324;2022-11-14T05:57:17;35.37;;;30.30;;
9294;SDS011;4686;44.496;11.324;2022-11-14T05:59:44;40.17;;;30.43;;
9294;SDS011;4686;44.496;11.324;2022-11-14T06:02:11;36.17;;;30.30;;
9294;SDS011;4686;44.496;11.324;2022-11-14T06:04:40;36.60;;;29.13;;
9294;SDS011;4686;44.496;11.324;2022-11-14T06:07:07;37.30;;;30.23;;
9294;SDS011;4686;44.496;11.324;2022-11-14T06:09:34;35.53;;;28.90;;
9294;SDS011;4686;44.496;11.324;2022-11-14T06:12:02;37.17;;;30.60;;
9294;SDS011;4686;44.496;11.324;2022-11-14T06:14:31;37.97;;;31.10;;
9294;SDS011;4686;44.496;11.324;2022-11-14T06:16:59;36.50;;;28.77;;
9294;SDS011;4686;44.496;11.324;2022-11-14T06:19:26;37.57;;;30.17;;
9294;SDS011;4686;44.496;11.324;2022-11-14T06:21:55;38.43;;;30.70;;
9294;SDS011;4686;44.496;11.324;2022-11-14T06:24:22;39.73;;;31.57;;
9294;SDS011;4686;44.496;11.324;2022-11-14T06:26:49;39.90;;;30.53;;
9294;SDS011;4686;44.496;11.324;2022-11-14T06:29:16;40.83;;;31.43;;
9294;SDS011;4686;44.496;11.324;2022-11-14T06:31:44;44.33;;;34.07;;
9294;SDS011;4686;44.496;11.324;2022-11-14T06:34:11;48.20;;;35.03;;
9294;SDS011;4686;44.496;11.324;2022-11-14T06:36:38;45.30;;;34.63;;
9294;SDS011;4686;44.496;11.324;2022-11-14T06:39:07;45.03;;;31.95;;
9294;SDS011;4686;44.496;11.324;2022-11-14T06:41:34;47.73;;;35.60;;
9294;SDS011;4686;44.496;11.324;2022-11-14T06:44:03;50.13;;;37.10;;
9294;SDS011;4686;44.496;11.324;2022-11-14T06:46:31;47.03;;;35.67;;
9294;SDS011;4686;44.496;11.324;2022-11-14T06:48:58;48.00;;;36.30;;
9294;SDS011;4686;44.496;11.324;2022-11-14T06:51:26;45.13;;;34.90;;
9294;SDS011;4686;44.496;11.324;2022-11-14T06:53:54;41.33;;;33.70;;
9294;SDS011;4686;44.496;11.324;2022-11-14T06:56:23;46.63;;;34.37;;
9294;SDS011;4686;44.496;11.324;2022-11-14T06:58:52;42.00;;;30.87;;
9294;SDS011;4686;44.496;11.324;2022-11-14T07:01:20;42.20;;;33.33;;
9294;SDS011;4686;44.496;11.324;2022-11-14T07:03:50;51.33;;;35.70;;
9294;SDS011;4686;44.496;11.324;2022-11-14T07:06:18;45.83;;;34.23;;
9294;SDS011;4686;44.496;11.324;2022-11-14T07:08:45;45.87;;;34.30;;
9294;SDS011;4686;44.496;11.324;2022-11-14T07:11:14;42.40;;;34.13;;
9294;SDS011;4686;44.496;11.324;2022-11-14T07:13:48;45.90;;;35.10;;
9294;SDS011;4686;44.496;11.324;2022-11-14T07:16:15;45.07;;;33.17;;
9294;SDS011;4686;44.496;11.324;2022-11-14T07:18:43;40.90;;;32.60;;
9294;SDS011;4686;44.496;11.324;2022-11-14T07:21:10;43.83;;;34.07;;
9294;SDS011;4686;44.496;11.324;2022-11-14T07:23:38;44.00;;;35.97;;
9294;SDS011;4686;44.496;11.324;2022-11-14T07:26:06;48.27;;;36.27;;
9294;SDS011;4686;44.496;11.324;2022-11-14T07:28:34;46.57;;;35.33;;
9294;SDS011;4686;44.496;11.324;2022-11-14T07:31:03;49.93;;;35.80;;
9294;SDS011;4686;44.496;11.324;2022-11-14T07:33:30;48.93;;;33.90;;
9294;SDS011;4686;44.496;11.324;2022-11-14T07:35:58;44.10;;;33.80;;
9294;SDS011;4686;44.496;11.324;2022-11-14T07:38:25;42.07;;;33.30;;
9294;SDS011;4686;44.496;11.324;2022-11-14T07:40:54;49.87;;;34.80;;
9294;SDS011;4686;44.496;11.324;2022-11-14T07:43:21;46.63;;;36.33;;
9294;SDS011;4686;44.496;11.324;2022-11-14T07:45:50;46.47;;;35.90;;
9294;SDS011;4686;44.496;11.324;2022-11-14T07:48:19;47.63;;;36.53;;
9294;SDS011;4686;44.496;11.324;2022-11-14T07:50:47;46.87;;;36.67;;
9294;SDS011;4686;44.496;11.324;2022-11-14T07:53:14;46.50;;;35.77;;
9294;SDS011;4686;44.496;11.324;2022-11-14T07:55:42;48.67;;;36.57;;
9294;SDS011;4686;44.496;11.324;2022-11-14T07:58:09;50.47;;;37.23;;
9294;SDS011;4686;44.496;11.324;2022-11-14T08:00:37;48.13;;;38.40;;
9294;SDS011;4686;44.496;11.324;2022-11-14T08:03:07;46.10;;;36.80;;
9294;SDS011;4686;44.496;11.324;2022-11-14T08:05:35;50.80;;;37.87;;
9294;SDS011;4686;44.496;11.324;2022-11-14T08:08:03;53.70;;;37.30;;
9294;SDS011;4686;44.496;11.324;2022-11-14T08:10:30;54.80;;;39.83;;
9294;SDS011;4686;44.496;11.324;2022-11-14T08:12:58;54.17;;;38.87;;
9294;SDS011;4686;44.496;11.324;2022-11-14T08:15:26;54.20;;;40.30;;
9294;SDS011;4686;44.496;11.324;2022-11-14T08:17:55;61.20;;;42.20;;
9294;SDS011;4686;44.496;11.324;2022-11-14T08:20:23;54.67;;;41.27;;
9294;SDS011;4686;44.496;11.324;2022-11-14T08:22:52;61.63;;;44.40;;
9294;SDS011;4686;44.496;11.324;2022-11-14T08:25:19;62.37;;;44.73;;
9294;SDS011;4686;44.496;11.324;2022-11-14T08:27:49;61.90;;;44.30;;
9294;SDS011;4686;44.496;11.324;2022-11-14T08:30:18;64.60;;;45.30;;
9294;SDS011;4686;44.496;11.324;2022-11-14T08:32:46;67.83;;;45.07;;
9294;SDS011;4686;44.496;11.324;2022-11-14T08:35:13;64.30;;;45.97;;
9294;SDS011;4686;44.496;11.324;2022-11-14T08:37:40;64.47;;;44.83;;
9294;SDS011;4686;44.496;11.324;2022-11-14T08:40:12;72.57;;;45.77;;
9294;SDS011;4686;44.496;11.324;2022-11-14T08:42:40;64.40;;;45.10;;
9294;SDS011;4686;44.496;11.324;2022-11-14T08:45:07;72.20;;;48.07;;
9294;SDS011;4686;44.496;11.324;2022-11-14T08:47:37;72.40;;;47.40;;
9294;SDS011;4686;44.496;11.324;2022-11-14T08:50:10;65.93;;;45.37;;
9294;SDS011;4686;44.496;11.324;2022-11-14T08:52:38;77.87;;;47.07;;
9294;SDS011;4686;44.496;11.324;2022-11-14T08:55:09;69.70;;;47.37;;
9294;SDS011;4686;44.496;11.324;2022-11-14T08:57:38;77.13;;;48.60;;
9294;SDS011;4686;44.496;11.324;2022-11-14T09:00:06;67.93;;;45.00;;
9294;SDS011;4686;44.496;11.324;2022-11-14T09:02:33;74.03;;;45.53;;
9294;SDS011;4686;44.496;11.324;2022-11-14T09:05:00;63.37;;;45.20;;
9294;SDS011;4686;44.496;11.324;2022-11-14T09:07:28;67.97;;;45.60;;
9294;SDS011;4686;44.496;11.324;2022-11-14T09:09:56;66.80;;;44.30;;
9294;SDS011;4686;44.496;11.324;2022-11-14T09:12:23;67.57;;;44.23;;
9294;SDS011;4686;44.496;11.324;2022-11-14T09:14:52;61.70;;;43.60;;
9294;SDS011;4686;44.496;11.324;2022-11-14T09:17:20;61.37;;;40.83;;
9294;SDS011;4686;44.496;11.324;2022-11-14T09:19:48;57.27;;;42.47;;
9294;SDS011;4686;44.496;11.324;2022-11-14T09:22:16;60.73;;;40.70;;
9294;SDS011;4686;44.496;11.324;2022-11-14T09:24:44;58.13;;;40.10;;
9294;SDS011;4686;44.496;11.324;2022-11-14T09:27:13;56.60;;;40.40;;
9294;SDS011;4686;44.496;11.324;2022-11-14T09:29:41;54.70;;;39.07;;
9294;SDS011;4686;44.496;11.324;2022-11-14T09:32:09;54.97;;;39.83;;
9294;SDS011;4686;44.496;11.324;2022-11-14T09:34:37;69.13;;;45.73;;
9294;SDS011;4686;44.496;11.324;2022-11-14T09:37:07;60.93;;;42.97;;
9294;SDS011;4686;44.496;11.324;2022-11-14T09:39:34;55.13;;;41.10;;
9294;SDS011;4686;44.496;11.324;2022-11-14T09:42:17;58.93;;;42.20;;
9294;SDS011;4686;44.496;11.324;2022-11-14T09:44:48;64.73;;;45.07;;
9294;SDS011;4686;44.496;11.324;2022-11-14T09:47:22;58.23;;;41.83;;
9294;SDS011;4686;44.496;11.324;2022-11-14T09:49:51;56.83;;;39.07;;
9294;SDS011;4686;44.496;11.324;2022-11-14T09:52:25;58.40;;;39.00;;
9294;SDS011;4686;44.496;11.324;2022-11-14T09:54:55;52.60;;;35.90;;
9294;SDS011;4686;44.496;11.324;2022-11-14T09:57:26;51.30;;;36.60;;
9294;SDS011;4686;44.496;11.324;2022-11-14T09:59:53;53.07;;;36.23;;
9294;SDS011;4686;44.496;11.324;2022-11-14T10:02:32;48.50;;;34.57;;
9294;SDS011;4686;44.496;11.324;2022-11-14T10:05:08;49.03;;;32.13;;
9294;SDS011;4686;44.496;11.324;2022-11-14T10:07:39;44.17;;;32.30;;
9294;SDS011;4686;44.496;11.324;2022-11-14T10:10:13;50.20;;;33.90;;
9294;SDS011;4686;44.496;11.324;2022-11-14T10:12:46;41.73;;;30.40;;
9294;SDS011;4686;44.496;11.324;2022-11-14T10:15:19;47.60;;;32.47;;
9294;SDS011;4686;44.496;11.324;2022-11-14T10:17:54;43.87;;;32.20;;
9294;SDS011;4686;44.496;11.324;2022-11-14T10:20:25;37.70;;;27.60;;
9294;SDS011;4686;44.496;11.324;2022-11-14T10:22:59;41.53;;;28.83;;
9294;SDS011;4686;44.496;11.324;2022-11-14T10:25:29;29.97;;;23.73;;
9294;SDS011;4686;44.496;11.324;2022-11-14T10:28:04;35.10;;;26.53;;
9294;SDS011;4686;44.496;11.324;2022-11-14T10:30:34;32.20;;;25.07;;
9294;SDS011;4686;44.496;11.324;2022-11-14T10:33:10;34.27;;;26.57;;
9294;SDS011;4686;44.496;11.324;2022-11-14T10:35:40;38.30;;;26.83;;
9294;SDS011;4686;44.496;11.324;2022-11-14T10:38:10;39.10;;;24.87;;
9294;SDS011;4686;44.496;11.324;2022-11-14T10:40:39;33.30;;;25.30;;
9294;SDS011;4686;44.496;11.324;2022-11-14T10:43:12;35.37;;;25.60;;
9294;SDS011;4686;44.496;11.324;2022-11-14T10:45:45;41.07;;;25.10;;
9294;SDS011;4686;44.496;11.324;2022-11-14T10:48:18;38.63;;;23.90;;
9294;SDS011;4686;44.496;11.324;2022-11-14T10:50:48;32.77;;;25.07;;
9294;SDS011;4686;44.496;11.324;2022-11-14T10:53:24;34.40;;;23.07;;
9294;SDS011;4686;44.496;11.324;2022-11-14T10:55:54;29.60;;;22.23;;
9294;SDS011;4686;44.496;11.324;2022-11-14T10:58:22;28.90;;;21.90;;
9294;SDS011;4686;44.496;11.324;2022-11-14T11:00:49;24.60;;;20.73;;
9294;SDS011;4686;44.496;11.324;2022-11-14T11:03:18;26.30;;;21.50;;
9294;SDS011;4686;44.496;11.324;2022-11-14T11:05:46;28.67;;;20.60;;
9294;SDS011;4686;44.496;11.324;2022-11-14T11:08:17;34.63;;;21.87;;
9294;SDS011;4686;44.496;11.324;2022-11-14T11:11:04;27.90;;;22.27;;
9294;SDS011;4686;44.496;11.324;2022-11-14T11:13:50;29.90;;;22.67;;
9294;SDS011;4686;44.496;11.324;2022-11-14T11:16:20;29.40;;;23.23;;
9294;SDS011;4686;44.496;11.324;2022-11-14T11:18:50;28.00;;;22.30;;
9294;SDS011;4686;44.496;11.324;2022-11-14T11:21:18;28.57;;;23.63;;
9294;SDS011;4686;44.496;11.324;2022-11-14T11:23:47;35.30;;;24.80;;
9294;SDS011;4686;44.496;11.324;2022-11-14T11:26:16;30.40;;;23.10;;
9294;SDS011;4686;44.496;11.324;2022-11-14T11:28:59;30.00;;;24.73;;
9294;SDS011;4686;44.496;11.324;2022-11-14T11:31:27;32.57;;;25.03;;
9294;SDS011;4686;44.496;11.324;2022-11-14T11:33:56;33.63;;;26.47;;
9294;SDS011;4686;44.496;11.324;2022-11-14T11:36:29;31.40;;;25.20;;
9294;SDS011;4686;44.496;11.324;2022-11-14T11:39:00;37.73;;;28.33;;
9294;SDS011;4686;44.496;11.324;2022-11-14T11:41:28;37.27;;;27.87;;
9294;SDS011;4686;44.496;11.324;2022-11-14T11:43:57;44.60;;;29.47;;
9294;SDS011;4686;44.496;11.324;2022-11-14T11:46:30;35.60;;;27.00;;
9294;SDS011;4686;44.496;11.324;2022-11-14T11:49:01;41.37;;;29.23;;
9294;SDS011;4686;44.496;11.324;2022-11-14T11:51:29;33.97;;;27.80;;
9294;SDS011;4686;44.496;11.324;2022-11-14T11:53:59;37.37;;;29.60;;
9294;SDS011;4686;44.496;11.324;2022-11-14T11:56:29;38.87;;;29.77;;
9294;SDS011;4686;44.496;11.324;2022-11-14T11:58:59;37.63;;;29.00;;
9294;SDS011;4686;44.496;11.324;2022-11-14T12:01:30;36.40;;;28.00;;
9294;SDS011;4686;44.496;11.324;2022-11-14T12:03:57;35.23;;;28.90;;
9294;SDS011;4686;44.496;11.324;2022-11-14T12:06:31;33.47;;;26.60;;
9294;SDS011;4686;44.496;11.324;2022-11-14T12:09:04;35.40;;;27.50;;
9294;SDS011;4686;44.496;11.324;2022-11-14T12:11:35;35.40;;;28.50;;
9294;SDS011;4686;44.496;11.324;2022-11-14T12:14:14;36.23;;;28.40;;
9294;SDS011;4686;44.496;11.324;2022-11-14T12:16:56;42.50;;;30.17;;
9294;SDS011;4686;44.496;11.324;2022-11-14T12:22:35;36.17;;;29.23;;
9294;SDS011;4686;44.496;11.324;2022-11-14T12:25:31;35.57;;;27.67;;
9294;SDS011;4686;44.496;11.324;2022-11-14T12:28:07;38.83;;;31.10;;
9294;SDS011;4686;44.496;11.324;2022-11-14T12:30:38;36.80;;;30.47;;
9294;SDS011;4686;44.496;11.324;2022-11-14T12:33:10;38.93;;;28.60;;
9294;SDS011;4686;44.496;11.324;2022-11-14T12:35:45;37.23;;;29.40;;
9294;SDS011;4686;44.496;11.324;2022-11-14T12:38:16;45.03;;;29.77;;
9294;SDS011;4686;44.496;11.324;2022-11-14T12:40:54;36.67;;;28.80;;
9294;SDS011;4686;44.496;11.324;2022-11-14T12:43:29;45.50;;;33.03;;
9294;SDS011;4686;44.496;11.324;2022-11-14T12:45:58;39.87;;;30.30;;
9294;SDS011;4686;44.496;11.324;2022-11-14T12:48:29;38.33;;;30.10;;
9294;SDS011;4686;44.496;11.324;2022-11-14T12:50:57;49.40;;;32.03;;
9294;SDS011;4686;44.496;11.324;2022-11-14T12:53:37;39.53;;;30.93;;
9294;SDS011;4686;44.496;11.324;2022-11-14T12:59:04;34.03;;;27.60;;
9294;SDS011;4686;44.496;11.324;2022-11-14T13:01:39;37.70;;;29.20;;
9294;SDS011;4686;44.496;11.324;2022-11-14T13:04:18;33.33;;;28.83;;
9294;SDS011;4686;44.496;11.324;2022-11-14T13:06:53;34.87;;;29.63;;
9294;SDS011;4686;44.496;11.324;2022-11-14T13:09:55;35.37;;;28.90;;
9294;SDS011;4686;44.496;11.324;2022-11-14T13:12:28;35.73;;;29.50;;
9294;SDS011;4686;44.496;11.324;2022-11-14T13:15:21;36.10;;;29.50;;
9294;SDS011;4686;44.496;11.324;2022-11-14T13:18:11;36.37;;;30.30;;
9294;SDS011;4686;44.496;11.324;2022-11-14T13:21:04;36.87;;;30.50;;
9294;SDS011;4686;44.496;11.324;2022-11-14T13:23:53;36.33;;;30.07;;
9294;SDS011;4686;44.496;11.324;2022-11-14T13:26:38;37.93;;;30.27;;
9294;SDS011;4686;44.496;11.324;2022-11-14T13:29:06;40.37;;;31.00;;
9294;SDS011;4686;44.496;11.324;2022-11-14T13:31:43;43.10;;;30.20;;
9294;SDS011;4686;44.496;11.324;2022-11-14T13:37:17;35.50;;;29.30;;
9294;SDS011;4686;44.496;11.324;2022-11-14T13:39:50;37.40;;;30.37;;
9294;SDS011;4686;44.496;11.324;2022-11-14T13:42:29;38.53;;;31.33;;
9294;SDS011;4686;44.496;11.324;2022-11-14T13:48:01;40.17;;;33.03;;
9294;SDS011;4686;44.496;11.324;2022-11-14T13:50:49;37.43;;;30.73;;
9294;SDS011;4686;44.496;11.324;2022-11-14T13:53:19;49.67;;;34.30;;
9294;SDS011;4686;44.496;11.324;2022-11-14T13:55:53;46.00;;;35.60;;
9294;SDS011;4686;44.496;11.324;2022-11-14T13:58:26;40.30;;;32.87;;
9294;SDS011;4686;44.496;11.324;2022-11-14T14:01:00;37.90;;;31.90;;
9294;SDS011;4686;44.496;11.324;2022-11-14T14:03:37;48.37;;;32.07;;
9294;SDS011;4686;44.496;11.324;2022-11-14T14:06:11;36.00;;;30.10;;
9294;SDS011;4686;44.496;11.324;2022-11-14T14:08:55;45.10;;;32.50;;
9294;SDS011;4686;44.496;11.324;2022-11-14T14:11:40;41.33;;;31.30;;
9294;SDS011;4686;44.496;11.324;2022-11-14T14:14:17;39.87;;;32.00;;
9294;SDS011;4686;44.496;11.324;2022-11-14T14:16:49;38.00;;;30.70;;
9294;SDS011;4686;44.496;11.324;2022-11-14T14:19:21;41.97;;;33.60;;
9294;SDS011;4686;44.496;11.324;2022-11-14T14:21:56;37.30;;;31.47;;
9294;SDS011;4686;44.496;11.324;2022-11-14T14:24:40;39.57;;;31.43;;
9294;SDS011;4686;44.496;11.324;2022-11-14T14:27:19;43.20;;;31.80;;
9294;SDS011;4686;44.496;11.324;2022-11-14T14:29:53;47.90;;;35.20;;
9294;SDS011;4686;44.496;11.324;2022-11-14T14:32:24;43.63;;;34.20;;
9294;SDS011;4686;44.496;11.324;2022-11-14T14:34:52;48.20;;;34.80;;
9294;SDS011;4686;44.496;11.324;2022-11-14T14:37:27;40.60;;;33.47;;
9294;SDS011;4686;44.496;11.324;2022-11-14T14:39:56;43.47;;;33.80;;
9294;SDS011;4686;44.496;11.324;2022-11-14T14:42:26;42.80;;;34.27;;
9294;SDS011;4686;44.496;11.324;2022-11-14T14:45:08;43.43;;;34.73;;
9294;SDS011;4686;44.496;11.324;2022-11-14T14:47:40;41.03;;;32.77;;
9294;SDS011;4686;44.496;11.324;2022-11-14T14:50:14;45.17;;;35.50;;
9294;SDS011;4686;44.496;11.324;2022-11-14T14:52:42;43.10;;;34.10;;
9294;SDS011;4686;44.496;11.324;2022-11-14T14:55:17;42.97;;;33.73;;
9294;SDS011;4686;44.496;11.324;2022-11-14T14:57:45;45.40;;;34.37;;
9294;SDS011;4686;44.496;11.324;2022-11-14T15:00:19;44.63;;;35.13;;
9294;SDS011;4686;44.496;11.324;2022-11-14T15:02:50;44.63;;;33.20;;